createdAt,value
2018-05-11T00:01:55.544Z,22.57
2018-05-11T00:04:29.065Z,23.00
2018-05-11T00:07:01.722Z,26.23
2018-05-11T00:09:34.638Z,24.93
2018-05-11T00:12:07.246Z,26.03
2018-05-11T00:14:39.905Z,24.93
2018-05-11T00:17:12.483Z,26.13
2018-05-11T00:19:45.965Z,27.40
2018-05-11T00:22:18.650Z,32.63
2018-05-11T00:24:52.303Z,26.50
2018-05-11T00:27:25.127Z,23.43
2018-05-11T00:29:59.080Z,26.53
2018-05-11T00:32:31.654Z,24.33
2018-05-11T00:35:04.230Z,22.67
2018-05-11T00:37:36.905Z,26.07
2018-05-11T00:40:09.527Z,25.40
2018-05-11T00:42:42.430Z,24.03
2018-05-11T00:45:15.111Z,24.30
2018-05-11T00:47:47.535Z,22.70
2018-05-11T00:50:20.202Z,24.93
2018-05-11T00:52:52.692Z,23.87
2018-05-11T00:55:37.817Z,28.87
2018-05-11T00:58:11.516Z,27.30
2018-05-11T01:00:44.169Z,28.20
2018-05-11T01:03:16.975Z,26.80
2018-05-11T01:05:49.626Z,26.63
2018-05-11T01:08:22.287Z,24.60
2018-05-11T01:10:55.014Z,26.93
2018-05-11T01:13:27.547Z,24.77
2018-05-11T01:16:00.040Z,26.17
2018-05-11T01:18:33.564Z,31.10
2018-05-11T01:21:06.524Z,24.77
2018-05-11T01:23:39.231Z,26.43
2018-05-11T01:26:12.689Z,22.70
2018-05-11T01:28:46.169Z,26.07
2018-05-11T01:31:19.233Z,26.67
2018-05-11T01:33:51.935Z,26.97
2018-05-11T01:36:25.434Z,21.23
2018-05-11T01:38:58.257Z,33.03
2018-05-11T01:41:31.210Z,26.53
2018-05-11T01:44:03.729Z,25.03
2018-05-11T01:46:36.567Z,30.50
2018-05-11T01:49:10.184Z,23.30
2018-05-11T01:51:42.942Z,20.27
2018-05-11T01:54:16.326Z,24.60
2018-05-11T01:56:49.087Z,22.40
2018-05-11T01:59:22.053Z,21.17
2018-05-11T02:01:54.459Z,20.63
2018-05-11T02:04:27.027Z,23.87
2018-05-11T02:06:59.696Z,18.73
2018-05-11T02:09:32.294Z,19.70
2018-05-11T02:12:05.261Z,18.90
2018-05-11T02:14:37.925Z,17.23
2018-05-11T02:17:11.340Z,17.13
2018-05-11T02:19:51.222Z,16.23
2018-05-11T02:22:24.460Z,19.33
2018-05-11T02:24:57.466Z,19.10
2018-05-11T02:27:30.280Z,17.97
2018-05-11T02:30:02.962Z,18.13
2018-05-11T02:32:36.712Z,17.70
2018-05-11T02:35:09.190Z,21.33
2018-05-11T02:37:42.045Z,20.27
2018-05-11T02:40:15.192Z,19.47
2018-05-11T02:42:47.871Z,21.90
2018-05-11T02:45:20.745Z,22.17
2018-05-11T02:47:53.655Z,20.83
2018-05-11T02:50:26.172Z,16.63
2018-05-11T02:52:59.154Z,18.83
2018-05-11T02:55:32.008Z,17.97
2018-05-11T02:58:05.004Z,21.90
2018-05-11T03:00:38.529Z,20.60
2018-05-11T03:03:12.131Z,21.93
2018-05-11T03:05:44.945Z,21.30
2018-05-11T03:08:17.537Z,21.03
2018-05-11T03:10:50.406Z,19.37
2018-05-11T03:13:24.113Z,22.00
2018-05-11T03:15:57.097Z,28.33
2018-05-11T03:18:30.527Z,19.03
2018-05-11T03:21:03.050Z,19.47
2018-05-11T03:23:36.674Z,22.63
2018-05-11T03:26:09.399Z,22.73
2018-05-11T03:28:42.304Z,22.57
2018-05-11T03:31:15.121Z,21.37
2018-05-11T03:33:47.620Z,22.30
2018-05-11T03:36:20.599Z,21.17
2018-05-11T03:38:53.109Z,25.43
2018-05-11T03:41:26.044Z,22.33
2018-05-11T03:43:58.647Z,23.33
2018-05-11T03:46:31.336Z,21.40
2018-05-11T03:49:04.293Z,23.13
2018-05-11T03:51:37.100Z,19.67
2018-05-11T03:54:09.853Z,23.00
2018-05-11T03:56:42.547Z,21.30
2018-05-11T03:59:14.997Z,23.40
2018-05-11T04:02:00.792Z,20.57
2018-05-11T04:04:46.395Z,21.10
2018-05-11T04:07:32.213Z,25.13
2018-05-11T04:10:04.882Z,22.07
2018-05-11T04:12:37.665Z,25.37
2018-05-11T04:15:11.245Z,25.00
2018-05-11T04:17:51.465Z,24.53
2018-05-11T04:20:24.190Z,25.13
2018-05-11T04:22:57.093Z,25.73
2018-05-11T04:25:29.977Z,25.40
2018-05-11T04:28:02.914Z,28.37
2018-05-11T04:30:35.552Z,23.70
2018-05-11T04:33:07.962Z,20.70
2018-05-11T04:35:41.153Z,22.27
2018-05-11T04:38:13.937Z,24.13
2018-05-11T04:40:46.957Z,23.13
2018-05-11T04:43:19.900Z,22.00
2018-05-11T04:45:52.793Z,22.27
2018-05-11T04:48:25.521Z,19.30
2018-05-11T04:50:58.765Z,19.57
2018-05-11T04:53:31.451Z,20.37
2018-05-11T04:56:04.332Z,21.43
2018-05-11T04:58:37.015Z,21.30
2018-05-11T05:01:10.007Z,21.90
2018-05-11T05:03:43.627Z,23.00
2018-05-11T05:06:17.007Z,22.23
2018-05-11T05:08:49.883Z,21.23
2018-05-11T05:11:22.442Z,25.33
2018-05-11T05:13:55.448Z,24.57
2018-05-11T05:16:29.965Z,24.07
2018-05-11T05:19:02.530Z,29.37
2018-05-11T05:21:35.640Z,23.97
2018-05-11T05:24:08.411Z,23.43
2018-05-11T05:26:46.385Z,27.30
2018-05-11T05:29:19.806Z,28.70
2018-05-11T05:31:52.800Z,28.13
2018-05-11T05:34:26.176Z,29.10
2018-05-11T05:36:58.856Z,35.77
2018-05-11T05:39:31.625Z,25.37
2018-05-11T05:42:04.620Z,29.00
2018-05-11T05:44:37.500Z,28.47
2018-05-11T05:47:10.182Z,29.97
2018-05-11T05:49:42.786Z,33.67
2018-05-11T05:52:15.467Z,31.73
2018-05-11T05:54:48.291Z,31.07
2018-05-11T05:57:21.816Z,29.90
2018-05-11T05:59:54.406Z,31.10
2018-05-11T06:02:27.256Z,33.93
2018-05-11T06:05:00.708Z,31.67
2018-05-11T06:07:33.956Z,27.73
2018-05-11T06:10:06.559Z,29.73
2018-05-11T06:12:38.896Z,32.63
2018-05-11T06:15:11.505Z,31.60
2018-05-11T06:17:44.076Z,31.90
2018-05-11T06:20:16.370Z,32.23
2018-05-11T06:22:49.100Z,31.53
2018-05-11T06:25:21.532Z,31.57
2018-05-11T06:27:54.164Z,31.77
2018-05-11T06:30:26.682Z,29.17
2018-05-11T06:32:59.085Z,35.03
2018-05-11T06:35:31.566Z,29.60
2018-05-11T06:38:04.118Z,29.73
2018-05-11T06:40:36.668Z,28.40
2018-05-11T06:43:09.138Z,33.37
2018-05-11T06:45:41.672Z,27.00
2018-05-11T06:48:14.024Z,27.43
2018-05-11T06:50:46.490Z,30.40
2018-05-11T06:53:19.157Z,28.70
2018-05-11T06:55:53.157Z,32.17
2018-05-11T06:58:25.806Z,37.23
2018-05-11T07:00:58.154Z,26.83
2018-05-11T07:03:30.668Z,33.70
2018-05-11T07:06:03.276Z,33.87
2018-05-11T07:08:35.864Z,37.93
2018-05-11T07:11:08.345Z,33.03
2018-05-11T07:13:41.789Z,29.03
2018-05-11T07:16:14.181Z,31.10
2018-05-11T07:18:47.579Z,32.20
2018-05-11T07:21:21.013Z,32.20
2018-05-11T07:23:53.479Z,30.70
2018-05-11T07:26:27.465Z,31.07
2018-05-11T07:28:59.887Z,29.70
2018-05-11T07:31:33.427Z,25.80
2018-05-11T07:34:06.806Z,24.37
2018-05-11T07:36:39.381Z,26.90
2018-05-11T07:39:12.104Z,25.47
2018-05-11T07:41:44.702Z,22.77
2018-05-11T07:44:17.303Z,24.13
2018-05-11T07:46:50.784Z,22.80
2018-05-11T07:49:23.908Z,22.40
2018-05-11T07:51:56.524Z,27.10
2018-05-11T07:54:29.185Z,23.40
2018-05-11T07:57:01.805Z,23.60
2018-05-11T07:59:34.771Z,24.63
2018-05-11T08:02:08.065Z,22.97
2018-05-11T08:04:40.437Z,23.33
2018-05-11T08:07:13.032Z,23.50
2018-05-11T08:09:45.604Z,24.67
2018-05-11T08:12:18.295Z,26.07
2018-05-11T08:14:50.742Z,24.07
2018-05-11T08:17:23.459Z,26.07
2018-05-11T08:19:56.708Z,25.40
2018-05-11T08:22:29.500Z,25.13
2018-05-11T08:25:02.064Z,27.33
2018-05-11T08:27:35.320Z,24.30
2018-05-11T08:30:07.863Z,27.93
2018-05-11T08:32:41.067Z,28.87
2018-05-11T08:35:14.372Z,27.07
2018-05-11T08:37:47.662Z,26.27
2018-05-11T08:40:20.366Z,24.43
2018-05-11T08:42:53.266Z,23.53
2018-05-11T08:45:25.847Z,24.20
2018-05-11T08:47:58.656Z,23.77
2018-05-11T08:50:31.136Z,23.20
2018-05-11T08:53:04.715Z,22.17
2018-05-11T08:55:38.574Z,20.60
2018-05-11T08:58:11.138Z,20.43
2018-05-11T09:00:43.772Z,22.07
2018-05-11T09:03:16.977Z,21.63
2018-05-11T09:05:50.098Z,23.83
2018-05-11T09:08:23.442Z,21.90
2018-05-11T09:10:55.877Z,20.33
2018-05-11T09:13:29.190Z,21.63
2018-05-11T09:16:01.864Z,19.87
2018-05-11T09:18:34.268Z,21.03
2018-05-11T09:21:06.702Z,19.83
2018-05-11T09:23:39.356Z,20.27
2018-05-11T09:26:11.816Z,20.60
2018-05-11T09:28:44.461Z,19.43
2018-05-11T09:31:17.169Z,20.20
2018-05-11T09:33:49.638Z,20.07
2018-05-11T09:36:22.378Z,21.53
2018-05-11T09:38:54.762Z,21.10
2018-05-11T09:41:28.034Z,20.30
2018-05-11T09:44:00.727Z,17.07
2018-05-11T09:46:33.300Z,17.30
2018-05-11T09:49:06.682Z,17.60
2018-05-11T09:51:39.345Z,18.70
2018-05-11T09:54:11.941Z,17.47
2018-05-11T09:56:45.157Z,19.00
2018-05-11T09:59:17.609Z,17.50
2018-05-11T10:01:50.433Z,17.33
2018-05-11T10:04:23.793Z,17.33
2018-05-11T10:06:56.940Z,18.37
2018-05-11T10:09:29.371Z,17.07
2018-05-11T10:12:03.272Z,17.43
2018-05-11T10:14:35.796Z,15.73
2018-05-11T10:17:08.272Z,15.87
2018-05-11T10:19:40.753Z,15.93
2018-05-11T10:22:13.108Z,16.73
2018-05-11T10:24:45.595Z,17.67
2018-05-11T10:27:18.778Z,16.03
2018-05-11T10:29:51.489Z,16.67
2018-05-11T10:32:24.931Z,17.50
2018-05-11T10:34:57.385Z,19.50
2018-05-11T10:37:30.650Z,17.47
2018-05-11T10:40:03.456Z,16.37
2018-05-11T10:42:36.019Z,14.40
2018-05-11T10:45:08.703Z,13.50
2018-05-11T10:47:41.312Z,20.80
2018-05-11T10:50:14.459Z,14.27
2018-05-11T10:52:47.356Z,18.80
2018-05-11T10:55:20.046Z,14.13
2018-05-11T10:57:52.678Z,17.40
2018-05-11T11:00:25.268Z,15.07
2018-05-11T11:02:57.934Z,17.00
2018-05-11T11:05:30.556Z,14.77
2018-05-11T11:08:03.123Z,18.77
2018-05-11T11:10:35.846Z,17.10
2018-05-11T11:13:08.566Z,12.07
2018-05-11T11:15:41.223Z,13.90
2018-05-11T11:18:14.466Z,13.13
2018-05-11T11:20:47.576Z,11.73
2018-05-11T11:23:20.346Z,14.53
2018-05-11T11:25:52.908Z,13.70
2018-05-11T11:28:25.472Z,14.60
2018-05-11T11:30:58.000Z,13.10
2018-05-11T11:33:30.516Z,13.73
2018-05-11T11:36:03.173Z,12.53
2018-05-11T11:38:35.931Z,13.10
2018-05-11T11:41:08.622Z,11.43
2018-05-11T11:43:41.555Z,12.23
2018-05-11T11:46:14.928Z,11.93
2018-05-11T11:48:47.864Z,10.67
2018-05-11T11:51:20.490Z,10.80
2018-05-11T11:53:54.008Z,10.32
2018-05-11T11:56:26.741Z,12.20
2018-05-11T11:58:59.303Z,10.60
2018-05-11T12:01:32.619Z,10.52
2018-05-11T12:04:05.777Z,11.13
2018-05-11T12:06:38.223Z,12.48
2018-05-11T12:09:10.711Z,13.80
2018-05-11T12:11:43.294Z,9.82
2018-05-11T12:14:16.006Z,14.93
2018-05-11T12:16:48.703Z,11.38
2018-05-11T12:19:21.659Z,12.23
2018-05-11T12:21:54.926Z,8.82
2018-05-11T12:24:28.647Z,8.63
2018-05-11T12:27:01.059Z,10.25
2018-05-11T12:29:33.723Z,8.63
2018-05-11T12:32:06.364Z,9.70
2018-05-11T12:34:42.617Z,7.93
2018-05-11T12:37:14.956Z,8.13
2018-05-11T12:39:48.224Z,8.65
2018-05-11T12:42:20.974Z,7.95
2018-05-11T12:44:53.659Z,9.05
2018-05-11T12:47:26.254Z,7.70
2018-05-11T12:49:58.892Z,7.30
2018-05-11T12:52:32.227Z,5.55
2018-05-11T12:55:05.013Z,7.37
2018-05-11T12:57:37.705Z,8.45
2018-05-11T13:00:10.329Z,7.97
2018-05-11T13:02:42.880Z,5.75
2018-05-11T13:05:15.577Z,5.57
2018-05-11T13:07:48.317Z,7.25
2018-05-11T13:10:20.848Z,4.97
2018-05-11T13:12:53.434Z,5.45
2018-05-11T13:15:26.572Z,5.35
2018-05-11T13:17:59.236Z,4.87
2018-05-11T13:20:31.967Z,5.15
2018-05-11T13:23:11.652Z,7.30
2018-05-11T13:25:44.206Z,5.15
2018-05-11T13:28:16.844Z,5.53
2018-05-11T13:30:49.312Z,5.22
2018-05-11T13:33:21.927Z,5.78
2018-05-11T13:35:54.509Z,4.03
2018-05-11T13:38:27.218Z,6.80
2018-05-11T13:40:59.831Z,6.05
2018-05-11T13:43:33.105Z,7.82
2018-05-11T13:46:05.870Z,6.32
2018-05-11T13:48:38.513Z,7.70
2018-05-11T13:51:11.156Z,5.32
2018-05-11T13:53:43.568Z,6.68
2018-05-11T13:56:16.039Z,7.75
2018-05-11T13:58:48.611Z,8.57
2018-05-11T14:01:21.258Z,6.43
2018-05-11T14:03:53.951Z,6.10
2018-05-11T14:06:26.850Z,6.37
2018-05-11T14:08:59.628Z,7.43
2018-05-11T14:11:32.067Z,5.90
2018-05-11T14:14:04.528Z,7.90
2018-05-11T14:16:36.984Z,7.82
2018-05-11T14:19:10.231Z,7.07
2018-05-11T14:21:42.663Z,5.85
2018-05-11T14:24:15.119Z,7.10
2018-05-11T14:26:48.353Z,7.90
2018-05-11T14:29:20.847Z,6.60
2018-05-11T14:31:54.243Z,6.37
2018-05-11T14:34:26.624Z,7.25
2018-05-11T14:36:59.088Z,7.45
2018-05-11T14:39:32.277Z,5.78
2018-05-11T14:42:05.496Z,5.43
2018-05-11T14:44:38.726Z,6.53
2018-05-11T14:47:11.397Z,5.45
2018-05-11T14:49:44.043Z,5.95
2018-05-11T14:52:16.636Z,11.95
2018-05-11T14:54:49.290Z,6.43
2018-05-11T14:57:21.899Z,5.68
2018-05-11T14:59:54.409Z,6.20
2018-05-11T15:02:27.763Z,5.10
2018-05-11T15:05:00.439Z,7.25
2018-05-11T15:07:33.151Z,5.93
2018-05-11T15:10:05.881Z,6.55
2018-05-11T15:12:38.439Z,8.38
2018-05-11T15:15:11.062Z,7.60
2018-05-11T15:17:43.761Z,6.78
2018-05-11T15:20:16.389Z,5.82
2018-05-11T15:22:55.852Z,5.30
2018-05-11T15:25:28.662Z,6.90
2018-05-11T15:28:01.014Z,6.80
2018-05-11T15:30:33.803Z,5.95
2018-05-11T15:33:06.314Z,6.55
2018-05-11T15:35:38.911Z,7.05
2018-05-11T15:38:11.359Z,6.35
2018-05-11T15:40:43.989Z,5.00
2018-05-11T15:43:16.429Z,6.57
2018-05-11T15:45:49.022Z,7.07
2018-05-11T15:48:22.408Z,5.07
2018-05-11T15:50:55.115Z,4.95
2018-05-11T15:53:28.393Z,8.02
2018-05-11T15:56:01.168Z,5.82
2018-05-11T15:58:33.709Z,6.28
2018-05-11T16:01:06.717Z,6.37
2018-05-11T16:03:39.917Z,4.62
2018-05-11T16:06:12.363Z,8.20
2018-05-11T16:08:45.179Z,5.47
2018-05-11T16:11:17.661Z,5.28
2018-05-11T16:13:50.376Z,5.62
2018-05-11T16:16:23.013Z,4.37
2018-05-11T16:18:56.217Z,4.80
2018-05-11T16:21:29.353Z,5.53
2018-05-11T16:24:02.062Z,8.02
2018-05-11T16:26:34.968Z,5.90
2018-05-11T16:29:08.064Z,5.50
2018-05-11T16:31:40.678Z,4.97
2018-05-11T16:34:13.354Z,5.45
2018-05-11T16:36:46.055Z,4.70
2018-05-11T16:39:18.777Z,6.62
2018-05-11T16:41:51.592Z,6.35
2018-05-11T16:44:24.805Z,7.53
2018-05-11T16:46:58.106Z,6.30
2018-05-11T16:49:31.007Z,6.68
2018-05-11T16:52:03.746Z,4.53
2018-05-11T16:54:36.396Z,8.30
2018-05-11T16:57:09.207Z,6.57
2018-05-11T16:59:41.763Z,7.30
2018-05-11T17:02:14.583Z,6.20
2018-05-11T17:04:47.114Z,6.45
2018-05-11T17:07:19.519Z,5.60
2018-05-11T17:09:52.674Z,6.43
2018-05-11T17:12:25.173Z,5.95
2018-05-11T17:14:57.762Z,6.57
2018-05-11T17:17:30.510Z,4.97
2018-05-11T17:20:03.110Z,8.20
2018-05-11T17:22:36.528Z,6.60
2018-05-11T17:25:09.207Z,6.37
2018-05-11T17:27:41.879Z,6.80
2018-05-11T17:30:14.414Z,9.65
2018-05-11T17:32:47.246Z,7.60
2018-05-11T17:35:19.682Z,7.07
2018-05-11T17:37:53.202Z,8.55
2018-05-11T17:40:26.139Z,5.03
2018-05-11T17:42:58.763Z,5.50
2018-05-11T17:45:31.328Z,7.47
2018-05-11T17:48:03.940Z,6.62
2018-05-11T17:50:36.607Z,5.72
2018-05-11T17:53:10.304Z,5.70
2018-05-11T17:55:43.693Z,5.53
2018-05-11T17:58:16.925Z,5.57
2018-05-11T18:00:50.065Z,6.50
2018-05-11T18:03:22.627Z,6.95
2018-05-11T18:05:55.442Z,6.57
2018-05-11T18:08:27.935Z,6.93
2018-05-11T18:11:00.574Z,6.78
2018-05-11T18:13:33.237Z,8.15
2018-05-11T18:16:05.746Z,7.15
2018-05-11T18:18:39.106Z,7.25
2018-05-11T18:21:11.761Z,7.27
2018-05-11T18:23:44.463Z,7.72
2018-05-11T18:26:17.162Z,5.80
2018-05-11T18:28:50.519Z,7.30
2018-05-11T18:31:23.209Z,8.53
2018-05-11T18:33:55.859Z,8.53
2018-05-11T18:36:29.489Z,9.93
2018-05-11T18:39:02.068Z,8.30
2018-05-11T18:41:34.653Z,6.87
2018-05-11T18:44:07.934Z,6.53
2018-05-11T18:46:40.444Z,6.93
2018-05-11T18:49:13.435Z,6.30
2018-05-11T18:51:46.250Z,8.63
2018-05-11T18:54:19.139Z,7.20
2018-05-11T18:56:52.174Z,6.80
2018-05-11T18:59:25.833Z,7.23
2018-05-11T19:01:59.648Z,8.30
2018-05-11T19:04:32.195Z,8.13
2018-05-11T19:07:04.720Z,10.53
2018-05-11T19:09:37.435Z,7.50
2018-05-11T19:12:10.272Z,8.23
2018-05-11T19:14:42.805Z,7.03
2018-05-11T19:17:15.589Z,9.40
2018-05-11T19:19:48.688Z,7.07
2018-05-11T19:22:22.232Z,7.67
2018-05-11T19:24:55.095Z,9.23
2018-05-11T19:27:27.706Z,8.77
2018-05-11T19:30:00.305Z,8.63
2018-05-11T19:32:33.145Z,7.33
2018-05-11T19:35:05.737Z,7.17
2018-05-11T19:37:38.728Z,7.40
2018-05-11T19:40:12.153Z,6.50
2018-05-11T19:42:44.739Z,8.43
2018-05-11T19:45:18.240Z,8.63
2018-05-11T19:47:50.916Z,7.47
2018-05-11T19:50:23.623Z,10.73
2018-05-11T19:52:56.399Z,8.67
2018-05-11T19:55:29.398Z,8.63
2018-05-11T19:58:01.978Z,11.50
2018-05-11T20:00:34.701Z,11.47
2018-05-11T20:03:07.369Z,10.50
2018-05-11T20:05:40.168Z,11.67
2018-05-11T20:08:13.003Z,11.97
2018-05-11T20:10:46.108Z,14.93
2018-05-11T20:13:18.524Z,9.80
2018-05-11T20:15:52.002Z,11.63
2018-05-11T20:18:24.537Z,8.37
2018-05-11T20:20:57.725Z,9.90
2018-05-11T20:23:31.233Z,9.07
2018-05-11T20:26:03.752Z,9.40
2018-05-11T20:28:36.521Z,8.87
2018-05-11T20:31:09.327Z,11.90
2018-05-11T20:33:41.956Z,8.80
2018-05-11T20:36:14.710Z,9.43
2018-05-11T20:38:47.239Z,8.60
2018-05-11T20:41:20.662Z,12.10
2018-05-11T20:43:53.244Z,11.87
2018-05-11T20:46:26.789Z,10.17
2018-05-11T20:49:00.153Z,11.33
2018-05-11T20:51:32.866Z,10.87
2018-05-11T20:54:05.619Z,9.90
2018-05-11T20:56:38.164Z,11.60
2018-05-11T20:59:10.815Z,10.43
2018-05-11T21:01:43.424Z,8.90
2018-05-11T21:04:16.049Z,9.03
2018-05-11T21:06:48.822Z,9.20
2018-05-11T21:09:21.536Z,10.27
2018-05-11T21:11:53.971Z,8.87
2018-05-11T21:14:27.629Z,9.47
2018-05-11T21:17:00.169Z,10.43
2018-05-11T21:19:32.816Z,9.73
2018-05-11T21:22:05.406Z,8.03
2018-05-11T21:24:38.030Z,8.63
2018-05-11T21:27:10.566Z,9.87
2018-05-11T21:29:43.335Z,9.23
2018-05-11T21:32:16.885Z,9.17
2018-05-11T21:34:49.560Z,8.17
2018-05-11T21:37:22.153Z,8.43
2018-05-11T21:39:54.663Z,9.27
2018-05-11T21:42:27.584Z,9.27
2018-05-11T21:45:00.317Z,9.70
2018-05-11T21:47:32.831Z,9.47
2018-05-11T21:50:05.371Z,11.43
2018-05-11T21:52:37.871Z,12.37
2018-05-11T21:55:11.066Z,10.43
2018-05-11T21:57:43.848Z,14.33
2018-05-11T22:00:16.563Z,10.93
2018-05-11T22:02:49.220Z,9.30
2018-05-11T22:05:21.818Z,9.63
2018-05-11T22:07:54.960Z,11.97
2018-05-11T22:10:28.224Z,14.33
2018-05-11T22:13:00.761Z,11.63
2018-05-11T22:15:33.472Z,8.93
2018-05-11T22:18:06.109Z,8.97
2018-05-11T22:20:38.584Z,9.70
2018-05-11T22:23:11.267Z,10.40
2018-05-11T22:25:44.013Z,8.73
2018-05-11T22:28:16.474Z,9.67
2018-05-11T22:30:48.947Z,9.43
2018-05-11T22:33:21.616Z,10.40
2018-05-11T22:35:54.143Z,10.20
2018-05-11T22:38:27.235Z,8.97
2018-05-11T22:40:59.780Z,10.40
2018-05-11T22:43:32.405Z,9.37
2018-05-11T22:46:05.035Z,11.27
2018-05-11T22:48:37.487Z,9.50
2018-05-11T22:51:09.904Z,9.70
2018-05-11T22:53:42.414Z,11.17
2018-05-11T22:56:15.673Z,10.83
2018-05-11T22:58:48.187Z,10.67
2018-05-11T23:01:20.909Z,12.70
2018-05-11T23:03:53.662Z,9.07
2018-05-11T23:06:26.577Z,12.67
2018-05-11T23:08:59.857Z,11.17
2018-05-11T23:11:33.008Z,10.83
2018-05-11T23:14:05.483Z,8.97
2018-05-11T23:16:37.856Z,10.00
2018-05-11T23:19:10.265Z,13.30
2018-05-11T23:21:42.689Z,10.03
2018-05-11T23:24:15.882Z,11.27
2018-05-11T23:26:49.049Z,9.30
2018-05-11T23:29:21.623Z,10.00
2018-05-11T23:31:54.059Z,9.53
2018-05-11T23:34:28.248Z,9.10
2018-05-11T23:37:00.692Z,9.37
2018-05-11T23:39:33.085Z,8.27
2018-05-11T23:42:06.528Z,10.27
2018-05-11T23:44:39.088Z,10.57
2018-05-11T23:47:11.806Z,10.10
2018-05-11T23:49:44.332Z,12.93
2018-05-11T23:52:16.827Z,13.07
2018-05-11T23:54:49.360Z,10.47
2018-05-11T23:57:21.702Z,10.43
2018-05-11T23:59:55.149Z,9.07
